YMML Airport Information

Runway Information
Runway 09 Length 7500 ft width 148 ft
Elevation 395 ft Threshold 0 ft Heading 94
Runway 27 Length 7500 ft Width 148 ft
Elevation 407 ft Threshold 0 ft Heading 274
Runway 16 Length 11998 ft width 197 ft
Elevation 432 ft Threshold 0 ft Heading 171
Runway 34 Length 11998 ft Width 197 ft
Elevation 330 ft Threshold 0 ft Heading 351
Airport Frequencies
Type APP Name APP Frequency 132 MHZ
Type ATIS Name ATIS Frequency 114.1 MHZ
Type CLD Name CLNC DEL Frequency 127.2 MHZ
Type DEP Name DEP Frequency 118.9 MHZ
Type GND Name GND Frequency 121.7 MHZ
Type TWR Name TWR Frequency 120.5 MHZ
Airport Navaids
Type NDB Name Bolinda Frequency 362 KHZ
Type NDB Name Epping Frequency 377 KHZ
Type VOR-DME Name Melbourne Frequency 114100 KHZ
Type NDB Name Rockdale Frequency 338 KHZ
Airport Weather Information & NOTAM
ADDS - METARS form results

(1451 UTC 22 July 2018)
 
METAR text: YMML 221430Z 02019KT 9999 FEW045 07/00 Q1016 FM1430 MOD TURB BLW 5000FT TILL 1500 FM1500 MOD/SEV TURB BLW 5000FT
Conditions at: YMML (MELBOURNE INTL A, AU) observed 1430 UTC 22 July 2018
Temperature: 7.0°C (45°F)
Dewpoint: 0.0°C (32°F) [RH = 61%]
Pressure (altimeter): 30.00 inches Hg (1016.0 mb)
Winds: from the NNE (20 degrees) at 22 MPH (19 knots; 9.9 m/s)
Visibility: 6 or more miles (10+ km)
Ceiling: at least 12,000 feet AGL
Clouds: few clouds at 4500 feet AGL
Weather: no significant weather observed at this time

METAR text: YMML 221400Z 01020KT 9999 FEW045 08/00 Q1016 FM1400 MOD TURB BLW 5000FT TILL 1500 FM1500 MOD/SEV TURB BLW 5000FT
Conditions at: YMML (MELBOURNE INTL A, AU) observed 1400 UTC 22 July 2018
Temperature: 8.0°C (46°F)
Dewpoint: 0.0°C (32°F) [RH = 57%]
Pressure (altimeter): 30.00 inches Hg (1016.0 mb)
Winds: from the N (10 degrees) at 23 MPH (20 knots; 10.4 m/s)
Visibility: 6 or more miles (10+ km)
Ceiling: at least 12,000 feet AGL
Clouds: few clouds at 4500 feet AGL
Weather: no significant weather observed at this time